Mark Center, OH

12:31 AM EDT on March 30, 2015 (GMT -0400)
Fort Wayne International | | Change Station
CLOSE
Current Station
Airport
Location: Fort Wayne,
Elevation: 827 ft
Nearby Weather Stations

Elev 827 ft 40.98 °N, 85.19 °W | Updated 14 minutes ago

Overcast
Overcast
45 °F
Feels Like 36 °F
N
24
Wind Variable Wind from West
Gusts 30 mph

Today
High -- | Low -- °F
--% Chance of Precip.
Yesterday
High -- | Low -- °F
Precip. -- in
7:25 AM 8:01 PM
Waxing Gibbous, 76% visible
Pressure 29.88 in
Visibility 10.0 miles
Clouds Mostly Cloudy 2900 ft
Overcast 3400 ft
Windchill 36 °F
Dew Point 37 °F
Humidity 74%
Rainfall 0.00 in
Snow Depth Not available.
UV 0 out of 12
Pollen 4.30 out of 12
Air Quality Not available.
Flu Activity Not available.
SPECI KFWA 300417Z 28021G26KT 10SM BKN029 OVC034 07/03 A2988 RMK AO2 PK WND 27026/0416 T00720028

More Conditions Fewer Conditions

Pressure 29.88 in
Visibility 10.0 miles
Clouds Mostly Cloudy 2900 ft
Overcast 3400 ft
Windchill 36 °F
Dew Point 37 °F
Humidity 74%
Rainfall 0.00 in
Snow Depth Not available.
UV 0 out of 12
Pollen 4.30 out of 12
Air Quality Not available.
Flu Activity Not available.
SPECI KFWA 300417Z 28021G26KT 10SM BKN029 OVC034 07/03 A2988 RMK AO2 PK WND 27026/0416 T00720028

More Conditions Fewer Conditions

10-Day Weather Forecast

Almanac

Astronomy

Mar. 30, 2015 Rise Set
Actual Time
Civil Twilight
Nautical Twilight
Astronomical Twilight
Moon
Length of Visible Light
Length of Day
Tomorrow will be .
, % of the Moon is Illuminated

Today's Extremes

State Highs State Lows

Community

WunderPhotos

Upload Photos

1,809,433 photos uploaded!

WunderBlogs® & News

Nearby

Air Quality

  Air Quality AQ Index Pollutant
Not available.

Snow Depth

Station Depth Elevation

Earthquake Activity

City Distance Mag. Time & Date
Minimum magnitude displayed is 2.5.

Coastal Water Temperatures

Place Temperature

Stations

Nearby Weather Stations

Station Location Temp. Windchill Dew Point Humidity Wind Precip. Elev Updated Type